createdAt,value
2018-03-07T00:01:37.414Z,71.37
2018-03-07T00:04:05.900Z,70.65
2018-03-07T00:06:34.370Z,70.90
2018-03-07T00:09:02.870Z,70.07
2018-03-07T00:11:31.370Z,70.31
2018-03-07T00:13:59.853Z,70.29
2018-03-07T00:16:28.348Z,71.87
2018-03-07T00:18:56.848Z,70.88
2018-03-07T00:21:25.363Z,71.03
2018-03-07T00:23:53.834Z,72.39
2018-03-07T00:26:22.331Z,72.23
2018-03-07T00:28:50.790Z,72.04
2018-03-07T00:31:19.293Z,70.94
2018-03-07T00:33:47.806Z,71.53
2018-03-07T00:36:16.275Z,72.84
2018-03-07T00:38:44.774Z,72.16
2018-03-07T00:41:13.262Z,74.00
2018-03-07T00:43:41.779Z,72.50
2018-03-07T00:46:10.243Z,73.38
2018-03-07T00:48:38.721Z,72.55
2018-03-07T00:51:07.222Z,72.26
2018-03-07T00:53:35.684Z,72.34
2018-03-07T00:56:04.201Z,71.75
2018-03-07T00:58:32.713Z,73.10
2018-03-07T01:01:01.167Z,72.44
2018-03-07T01:03:30.338Z,71.84
2018-03-07T01:05:58.802Z,72.85
2018-03-07T01:08:27.262Z,71.75
2018-03-07T01:10:55.747Z,72.36
2018-03-07T01:13:24.246Z,72.22
2018-03-07T01:15:52.709Z,71.92
2018-03-07T01:18:21.214Z,71.80
2018-03-07T01:20:49.668Z,72.86
2018-03-07T01:23:18.159Z,72.24
2018-03-07T01:25:46.618Z,71.98
2018-03-07T01:28:15.118Z,71.64
2018-03-07T01:30:43.623Z,72.41
2018-03-07T01:33:12.081Z,72.69
2018-03-07T01:35:40.543Z,73.30
2018-03-07T01:38:09.058Z,73.94
2018-03-07T01:40:37.584Z,72.54
2018-03-07T01:43:06.042Z,72.83
2018-03-07T01:45:34.542Z,73.32
2018-03-07T01:48:02.998Z,73.64
2018-03-07T01:50:31.514Z,74.35
2018-03-07T01:52:59.983Z,73.28
2018-03-07T01:55:28.442Z,72.55
2018-03-07T01:57:56.923Z,72.06
2018-03-07T02:00:25.417Z,73.36
2018-03-07T02:02:53.913Z,73.12
2018-03-07T02:05:22.418Z,72.96
2018-03-07T02:07:50.919Z,72.60
2018-03-07T02:10:19.414Z,73.01
2018-03-07T02:12:47.929Z,72.57
2018-03-07T02:15:16.390Z,72.33
2018-03-07T02:17:44.873Z,73.52
2018-03-07T02:20:13.370Z,73.03
2018-03-07T02:22:41.871Z,72.51
2018-03-07T02:25:10.398Z,73.58
2018-03-07T02:27:38.870Z,72.98
2018-03-07T02:30:07.383Z,72.37
2018-03-07T02:32:35.851Z,72.22
2018-03-07T02:35:04.354Z,71.77
2018-03-07T02:37:32.895Z,72.06
2018-03-07T02:40:01.370Z,71.67
2018-03-07T02:42:29.888Z,71.74
2018-03-07T02:44:58.342Z,72.47
2018-03-07T02:47:26.839Z,72.39
2018-03-07T02:49:55.334Z,72.39
2018-03-07T02:52:23.802Z,72.01
2018-03-07T02:54:52.302Z,71.87
2018-03-07T02:57:20.827Z,72.12
2018-03-07T02:59:49.283Z,72.73
2018-03-07T03:02:17.773Z,72.73
2018-03-07T03:04:46.285Z,72.87
2018-03-07T03:07:14.755Z,72.63
2018-03-07T03:09:43.237Z,72.30
2018-03-07T03:12:11.735Z,72.57
2018-03-07T03:14:40.202Z,71.89
2018-03-07T03:17:08.699Z,72.81
2018-03-07T03:19:37.174Z,72.04
2018-03-07T03:22:05.689Z,71.77
2018-03-07T03:24:34.158Z,71.60
2018-03-07T03:27:02.622Z,71.76
2018-03-07T03:29:31.162Z,71.87
2018-03-07T03:31:59.625Z,71.49
2018-03-07T03:34:28.128Z,71.83
2018-03-07T03:36:56.594Z,72.09
2018-03-07T03:39:25.086Z,72.00
2018-03-07T03:41:53.586Z,71.75
2018-03-07T03:44:22.046Z,72.29
2018-03-07T03:46:50.580Z,71.87
2018-03-07T03:49:19.042Z,71.86
2018-03-07T03:51:47.512Z,71.99
2018-03-07T03:54:16.034Z,72.52
2018-03-07T03:56:44.531Z,73.11
2018-03-07T03:59:13.043Z,73.43
2018-03-07T04:01:41.541Z,73.29
2018-03-07T04:04:10.019Z,72.79
2018-03-07T04:06:38.541Z,72.81
2018-03-07T04:09:07.010Z,73.36
2018-03-07T04:11:35.506Z,73.04
2018-03-07T04:14:03.992Z,72.70
2018-03-07T04:16:32.498Z,72.57
2018-03-07T04:19:00.995Z,72.52
2018-03-07T04:21:29.456Z,72.28
2018-03-07T04:23:57.950Z,72.29
2018-03-07T04:26:26.431Z,72.73
2018-03-07T04:28:54.966Z,72.16
2018-03-07T04:31:23.430Z,71.63
2018-03-07T04:33:51.930Z,71.48
2018-03-07T04:36:20.454Z,71.67
2018-03-07T04:38:48.914Z,71.49
2018-03-07T04:41:17.387Z,71.38
2018-03-07T04:43:45.887Z,72.21
2018-03-07T04:46:14.349Z,72.37
2018-03-07T04:48:42.838Z,71.73
2018-03-07T04:51:11.290Z,71.52
2018-03-07T04:53:39.787Z,71.32
2018-03-07T04:56:08.283Z,70.86
2018-03-07T04:58:36.728Z,71.87
2018-03-07T05:01:05.246Z,71.62
2018-03-07T05:03:33.706Z,71.68
2018-03-07T05:06:02.169Z,71.61
2018-03-07T05:08:30.662Z,71.34
2018-03-07T05:10:59.118Z,71.15
2018-03-07T05:13:27.658Z,71.34
2018-03-07T05:15:56.110Z,70.95
2018-03-07T05:18:24.611Z,71.09
2018-03-07T05:20:53.079Z,71.42
2018-03-07T05:23:21.543Z,71.43
2018-03-07T05:25:50.066Z,71.13
2018-03-07T05:28:18.574Z,71.57
2018-03-07T05:30:47.085Z,71.07
2018-03-07T05:33:15.546Z,70.81
2018-03-07T05:35:44.002Z,70.64
2018-03-07T05:38:12.510Z,70.37
2018-03-07T05:40:40.985Z,70.22
2018-03-07T05:43:09.501Z,70.19
2018-03-07T05:45:38.007Z,70.13
2018-03-07T05:48:06.462Z,70.40
2018-03-07T05:50:34.962Z,70.07
2018-03-07T05:53:03.426Z,69.93
2018-03-07T05:55:31.935Z,69.89
2018-03-07T05:58:00.438Z,69.54
2018-03-07T06:00:28.902Z,69.71
2018-03-07T06:02:57.410Z,69.48
2018-03-07T06:05:25.906Z,69.61
2018-03-07T06:07:54.412Z,69.54
2018-03-07T06:10:22.902Z,69.72
2018-03-07T06:12:51.357Z,69.45
2018-03-07T06:15:19.855Z,69.39
2018-03-07T06:17:48.362Z,69.04
2018-03-07T06:20:16.844Z,69.29
2018-03-07T06:22:45.346Z,68.77
2018-03-07T06:25:13.854Z,69.07
2018-03-07T06:27:42.322Z,69.54
2018-03-07T06:30:10.835Z,70.50
2018-03-07T06:32:39.306Z,69.79
2018-03-07T06:35:07.841Z,69.59
2018-03-07T06:37:36.385Z,69.90
2018-03-07T06:40:04.855Z,69.92
2018-03-07T06:42:33.347Z,69.46
2018-03-07T06:45:01.871Z,68.99
2018-03-07T06:47:30.714Z,68.88
2018-03-07T06:49:59.188Z,68.65
2018-03-07T06:52:27.734Z,68.73
2018-03-07T06:54:56.212Z,68.09
2018-03-07T06:57:24.685Z,68.37
2018-03-07T06:59:53.186Z,67.96
2018-03-07T07:02:21.650Z,68.50
2018-03-07T07:04:50.131Z,68.08
2018-03-07T07:07:18.627Z,68.30
2018-03-07T07:09:47.090Z,67.27
2018-03-07T07:12:15.583Z,67.06
2018-03-07T07:14:44.059Z,66.73
2018-03-07T07:17:12.563Z,67.12
2018-03-07T07:19:41.019Z,66.58
2018-03-07T07:22:10.103Z,67.09
2018-03-07T07:24:38.641Z,67.08
2018-03-07T07:27:07.114Z,66.29
2018-03-07T07:29:35.569Z,66.03
2018-03-07T07:32:04.101Z,66.00
2018-03-07T07:34:32.638Z,64.97
2018-03-07T07:37:01.106Z,65.46
2018-03-07T07:39:29.633Z,64.27
2018-03-07T07:41:58.141Z,64.22
2018-03-07T07:44:26.625Z,63.99
2018-03-07T07:46:55.104Z,63.57
2018-03-07T07:49:23.636Z,64.12
2018-03-07T07:51:52.151Z,63.05
2018-03-07T07:54:20.654Z,62.90
2018-03-07T07:56:49.135Z,62.41
2018-03-07T07:59:17.659Z,61.94
2018-03-07T08:01:46.135Z,62.94
2018-03-07T08:04:14.603Z,62.29
2018-03-07T08:06:43.119Z,62.28
2018-03-07T08:09:11.567Z,61.91
2018-03-07T08:11:40.062Z,61.36
2018-03-07T08:14:08.570Z,61.86
2018-03-07T08:16:37.038Z,61.84
2018-03-07T08:19:05.550Z,61.44
2018-03-07T08:21:34.031Z,61.75
2018-03-07T08:24:02.567Z,60.59
2018-03-07T08:26:31.117Z,60.85
2018-03-07T08:28:59.563Z,61.70
2018-03-07T08:31:28.069Z,61.39
2018-03-07T08:33:56.556Z,61.42
2018-03-07T08:36:25.054Z,61.35
2018-03-07T08:38:53.566Z,60.41
2018-03-07T08:41:22.096Z,60.38
2018-03-07T08:43:50.575Z,59.46
2018-03-07T08:46:19.115Z,60.41
2018-03-07T08:48:47.626Z,60.96
2018-03-07T08:51:16.090Z,60.68
2018-03-07T08:53:44.606Z,60.40
2018-03-07T08:56:13.074Z,60.27
2018-03-07T08:58:41.629Z,60.30
2018-03-07T09:01:10.155Z,60.46
2018-03-07T09:03:38.666Z,60.51
2018-03-07T09:06:07.174Z,61.02
2018-03-07T09:08:35.685Z,61.32
2018-03-07T09:11:04.185Z,61.21
2018-03-07T09:13:32.771Z,61.43
2018-03-07T09:16:01.302Z,61.03
2018-03-07T09:18:29.855Z,60.51
2018-03-07T09:20:58.327Z,61.44
2018-03-07T09:23:26.798Z,61.05
2018-03-07T09:25:55.314Z,60.40
2018-03-07T09:28:23.783Z,59.23
2018-03-07T09:30:52.282Z,60.70
2018-03-07T09:33:20.754Z,59.48
2018-03-07T09:35:49.271Z,59.78
2018-03-07T09:38:17.761Z,59.69
2018-03-07T09:40:46.256Z,59.55
2018-03-07T09:43:14.760Z,58.82
2018-03-07T09:45:43.221Z,58.59
2018-03-07T09:48:11.730Z,60.03
2018-03-07T09:50:40.239Z,60.02
2018-03-07T09:53:08.706Z,59.86
2018-03-07T09:55:37.399Z,59.71
2018-03-07T09:58:06.165Z,59.93
2018-03-07T10:00:34.978Z,60.24
2018-03-07T10:03:03.746Z,60.47
2018-03-07T10:05:32.609Z,60.55
2018-03-07T10:08:01.342Z,60.50
2018-03-07T10:10:29.911Z,60.03
2018-03-07T10:12:58.393Z,60.70
2018-03-07T10:15:28.009Z,60.91
2018-03-07T10:17:56.697Z,60.97
2018-03-07T10:20:25.212Z,61.62
2018-03-07T10:22:53.739Z,60.28
2018-03-07T10:25:22.251Z,60.29
2018-03-07T10:27:50.775Z,60.15
2018-03-07T10:30:19.243Z,61.19
2018-03-07T10:32:47.765Z,61.03
2018-03-07T10:35:16.266Z,60.47
2018-03-07T10:37:44.753Z,59.87
2018-03-07T10:40:13.267Z,59.87
2018-03-07T10:42:41.745Z,59.92
2018-03-07T10:45:10.284Z,59.71
2018-03-07T10:47:38.768Z,59.80
2018-03-07T10:50:07.252Z,59.88
2018-03-07T10:52:35.782Z,60.43
2018-03-07T10:55:04.323Z,60.41
2018-03-07T10:57:32.854Z,60.09
2018-03-07T11:00:01.317Z,60.39
2018-03-07T11:02:29.868Z,58.38
2018-03-07T11:04:58.366Z,59.02
2018-03-07T11:07:26.874Z,59.04
2018-03-07T11:09:55.374Z,58.97
2018-03-07T11:12:23.884Z,59.71
2018-03-07T11:14:52.327Z,59.30
2018-03-07T11:17:20.833Z,59.06
2018-03-07T11:19:49.338Z,58.93
2018-03-07T11:22:17.810Z,58.97
2018-03-07T11:24:46.286Z,58.99
2018-03-07T11:27:14.802Z,59.12
2018-03-07T11:29:43.273Z,59.09
2018-03-07T11:32:11.744Z,58.60
2018-03-07T11:34:40.262Z,59.22
2018-03-07T11:37:08.762Z,58.72
2018-03-07T11:39:37.254Z,58.85
2018-03-07T11:42:05.769Z,58.87
2018-03-07T11:44:34.276Z,58.59
2018-03-07T11:47:02.782Z,58.33
2018-03-07T11:49:31.287Z,56.37
2018-03-07T11:51:59.822Z,54.01
2018-03-07T11:54:28.304Z,55.32
2018-03-07T11:56:56.812Z,54.13
2018-03-07T11:59:25.282Z,54.43
2018-03-07T12:01:53.816Z,52.32
2018-03-07T12:04:22.336Z,54.04
2018-03-07T12:06:50.903Z,50.96
2018-03-07T12:09:19.386Z,52.13
2018-03-07T12:11:47.863Z,52.11
2018-03-07T12:14:16.409Z,52.62
2018-03-07T12:16:44.887Z,52.32
2018-03-07T12:19:13.431Z,52.00
2018-03-07T12:21:42.017Z,52.08
2018-03-07T12:24:10.541Z,51.42
2018-03-07T12:26:39.092Z,50.99
2018-03-07T12:29:07.562Z,50.07
2018-03-07T12:31:36.062Z,50.71
2018-03-07T12:34:04.633Z,49.58
2018-03-07T12:36:33.117Z,47.12
2018-03-07T12:39:01.618Z,48.81
2018-03-07T12:41:30.123Z,47.67
2018-03-07T12:43:58.658Z,48.28
2018-03-07T12:46:27.144Z,47.69
2018-03-07T12:48:55.679Z,47.88
2018-03-07T12:51:24.154Z,45.56
2018-03-07T12:53:52.646Z,45.64
2018-03-07T12:56:21.134Z,43.75
2018-03-07T12:58:49.672Z,44.35
2018-03-07T13:01:18.159Z,45.74
2018-03-07T13:03:46.644Z,45.36
2018-03-07T13:06:15.151Z,44.40
2018-03-07T13:08:43.615Z,44.99
2018-03-07T13:11:12.122Z,43.93
2018-03-07T13:13:40.586Z,44.77
2018-03-07T13:16:09.052Z,42.09
2018-03-07T13:18:37.550Z,43.91
2018-03-07T13:21:06.065Z,44.42
2018-03-07T13:23:34.577Z,44.23
2018-03-07T13:26:03.087Z,43.01
2018-03-07T13:28:31.585Z,44.05
2018-03-07T13:31:00.067Z,44.50
2018-03-07T13:33:28.583Z,43.85
2018-03-07T13:35:57.092Z,42.83
2018-03-07T13:38:25.574Z,44.33
2018-03-07T13:40:54.071Z,44.31
2018-03-07T13:43:22.570Z,43.51
2018-03-07T13:45:51.082Z,44.28
2018-03-07T13:48:19.602Z,43.20
2018-03-07T13:50:48.098Z,41.49
2018-03-07T13:53:16.562Z,42.64
2018-03-07T13:55:45.085Z,43.75
2018-03-07T13:58:13.743Z,44.54
2018-03-07T14:00:42.312Z,44.15
2018-03-07T14:03:10.804Z,44.46
2018-03-07T14:05:39.691Z,44.53
2018-03-07T14:08:08.202Z,43.14
2018-03-07T14:10:36.703Z,44.45
2018-03-07T14:13:05.194Z,44.76
2018-03-07T14:15:33.722Z,43.32
2018-03-07T14:18:02.203Z,43.80
2018-03-07T14:20:30.674Z,43.98
2018-03-07T14:22:59.180Z,43.78
2018-03-07T14:25:27.700Z,44.07
2018-03-07T14:27:56.210Z,44.37
2018-03-07T14:30:24.678Z,44.14
2018-03-07T14:32:53.154Z,43.99
2018-03-07T14:35:21.703Z,44.28
2018-03-07T14:37:50.175Z,44.52
2018-03-07T14:40:18.700Z,44.65
2018-03-07T14:42:47.156Z,44.11
2018-03-07T14:45:15.675Z,44.73
2018-03-07T14:47:44.170Z,43.99
2018-03-07T14:50:12.678Z,43.83
2018-03-07T14:52:41.230Z,44.10
2018-03-07T14:55:09.744Z,44.39
2018-03-07T14:57:38.265Z,43.21
2018-03-07T15:00:06.831Z,44.02
2018-03-07T15:02:35.299Z,43.25
2018-03-07T15:05:03.819Z,43.48
2018-03-07T15:07:32.326Z,43.69
2018-03-07T15:10:00.796Z,44.26
2018-03-07T15:12:29.330Z,44.94
2018-03-07T15:14:57.827Z,45.18
2018-03-07T15:17:26.371Z,45.55
2018-03-07T15:19:54.879Z,45.94
2018-03-07T15:22:23.348Z,46.33
2018-03-07T15:24:51.899Z,46.83
2018-03-07T15:27:20.430Z,46.90
2018-03-07T15:29:48.946Z,47.10
2018-03-07T15:32:17.407Z,47.70
2018-03-07T15:34:45.877Z,48.12
2018-03-07T15:37:14.391Z,48.23
2018-03-07T15:39:42.878Z,49.01
2018-03-07T15:42:11.382Z,48.87
2018-03-07T15:44:39.854Z,49.06
2018-03-07T15:47:08.371Z,49.92
2018-03-07T15:49:36.902Z,50.09
2018-03-07T15:52:05.382Z,51.18
2018-03-07T15:54:33.931Z,50.72
2018-03-07T15:57:02.381Z,52.26
2018-03-07T15:59:30.910Z,51.83
2018-03-07T16:01:59.386Z,51.40
2018-03-07T16:04:27.899Z,51.32
2018-03-07T16:06:56.406Z,52.55
2018-03-07T16:09:24.873Z,51.49
2018-03-07T16:11:53.382Z,52.27
2018-03-07T16:14:21.863Z,51.83
2018-03-07T16:16:50.326Z,52.14
2018-03-07T16:19:18.837Z,52.04
2018-03-07T16:21:47.310Z,52.32
2018-03-07T16:24:15.779Z,52.38
2018-03-07T16:26:44.265Z,52.76
2018-03-07T16:29:12.773Z,52.62
2018-03-07T16:31:41.247Z,52.93
2018-03-07T16:34:09.766Z,53.29
2018-03-07T16:36:38.295Z,53.91
2018-03-07T16:39:06.775Z,54.28
2018-03-07T16:41:35.286Z,54.57
2018-03-07T16:44:03.757Z,54.77
2018-03-07T16:46:32.266Z,54.99
2018-03-07T16:49:00.790Z,55.15
2018-03-07T16:51:29.312Z,55.54
2018-03-07T16:53:57.786Z,55.58
2018-03-07T16:56:26.289Z,55.80
2018-03-07T16:58:54.754Z,59.55
2018-03-07T17:01:23.254Z,60.34
2018-03-07T17:03:51.754Z,62.40
2018-03-07T17:06:20.306Z,62.66
2018-03-07T17:08:48.798Z,61.39
2018-03-07T17:11:17.263Z,60.31
2018-03-07T17:13:45.776Z,59.42
2018-03-07T17:16:14.250Z,59.15
2018-03-07T17:18:42.767Z,60.39
2018-03-07T17:21:11.237Z,63.96
2018-03-07T17:23:39.738Z,63.87
2018-03-07T17:26:08.250Z,64.74
2018-03-07T17:28:36.718Z,62.61
2018-03-07T17:31:05.215Z,61.84
2018-03-07T17:33:33.723Z,64.13
2018-03-07T17:36:02.200Z,63.59
2018-03-07T17:38:30.711Z,62.37
2018-03-07T17:40:59.209Z,61.72
2018-03-07T17:43:27.670Z,63.53
2018-03-07T17:45:56.171Z,64.30
2018-03-07T17:48:24.675Z,62.87
2018-03-07T17:50:53.138Z,62.07
2018-03-07T17:53:21.639Z,62.80
2018-03-07T17:55:50.126Z,62.11
2018-03-07T17:58:18.634Z,61.92
2018-03-07T18:00:47.163Z,61.56
2018-03-07T18:03:15.675Z,62.64
2018-03-07T18:05:44.150Z,62.00
2018-03-07T18:08:12.618Z,62.12
2018-03-07T18:10:41.115Z,64.80
2018-03-07T18:13:09.579Z,64.62
2018-03-07T18:15:38.087Z,63.63
2018-03-07T18:18:06.559Z,63.51
2018-03-07T18:20:35.074Z,67.73
2018-03-07T18:23:03.590Z,68.13
2018-03-07T18:25:32.048Z,69.45
2018-03-07T18:28:00.578Z,68.20
2018-03-07T18:30:29.078Z,66.27
2018-03-07T18:32:57.577Z,66.13
2018-03-07T18:35:26.039Z,65.12
2018-03-07T18:37:54.550Z,64.92
2018-03-07T18:40:23.018Z,64.68
2018-03-07T18:42:51.495Z,64.64
2018-03-07T18:45:19.999Z,64.88
2018-03-07T18:47:48.515Z,64.60
2018-03-07T18:50:16.986Z,64.41
2018-03-07T18:52:45.511Z,64.65
2018-03-07T18:55:13.970Z,64.55
2018-03-07T18:57:42.499Z,64.32
2018-03-07T19:00:11.001Z,64.23
2018-03-07T19:02:39.461Z,66.15
2018-03-07T19:05:07.986Z,65.28
2018-03-07T19:07:36.451Z,65.50
2018-03-07T19:10:04.928Z,66.71
2018-03-07T19:12:33.471Z,65.96
2018-03-07T19:15:01.960Z,66.46
2018-03-07T19:17:30.466Z,66.10
2018-03-07T19:19:58.966Z,65.60
2018-03-07T19:22:27.426Z,65.54
2018-03-07T19:24:55.930Z,65.66
2018-03-07T19:27:24.393Z,66.98
2018-03-07T19:29:52.895Z,66.25
2018-03-07T19:32:21.367Z,66.01
2018-03-07T19:34:49.879Z,65.84
2018-03-07T19:37:18.385Z,65.87
2018-03-07T19:39:46.850Z,66.05
2018-03-07T19:42:15.354Z,66.22
2018-03-07T19:44:43.830Z,66.38
2018-03-07T19:47:12.330Z,66.33
2018-03-07T19:49:40.851Z,66.51
2018-03-07T19:52:09.362Z,65.96
2018-03-07T19:54:37.826Z,67.88
2018-03-07T19:57:06.342Z,66.67
2018-03-07T19:59:34.846Z,66.79
2018-03-07T20:02:03.345Z,66.41
2018-03-07T20:04:31.814Z,66.93
2018-03-07T20:07:00.314Z,66.37
2018-03-07T20:09:28.815Z,66.43
2018-03-07T20:11:57.320Z,66.22
2018-03-07T20:14:25.795Z,67.11
2018-03-07T20:16:54.314Z,67.18
2018-03-07T20:19:22.778Z,67.50
2018-03-07T20:21:51.285Z,68.02
2018-03-07T20:24:19.755Z,67.77
2018-03-07T20:26:48.244Z,69.79
2018-03-07T20:29:16.711Z,68.20
2018-03-07T20:31:45.226Z,68.36
2018-03-07T20:34:13.702Z,70.30
2018-03-07T20:36:42.244Z,68.78
2018-03-07T20:39:10.722Z,69.56
2018-03-07T20:41:39.188Z,69.71
2018-03-07T20:44:07.691Z,69.02
2018-03-07T20:46:36.154Z,69.16
2018-03-07T20:49:05.711Z,70.75
2018-03-07T20:51:34.220Z,70.57
2018-03-07T20:54:02.706Z,69.54
2018-03-07T20:56:31.251Z,71.63
2018-03-07T20:58:59.722Z,71.17
2018-03-07T21:01:28.243Z,71.65
2018-03-07T21:03:56.750Z,71.67
2018-03-07T21:06:25.249Z,71.06
2018-03-07T21:08:53.727Z,72.46
2018-03-07T21:11:22.237Z,71.19
2018-03-07T21:13:50.743Z,70.18
2018-03-07T21:16:19.215Z,72.73
2018-03-07T21:18:47.690Z,70.82
2018-03-07T21:21:16.211Z,72.86
2018-03-07T21:23:44.713Z,73.26
2018-03-07T21:26:13.200Z,71.26
2018-03-07T21:28:41.903Z,70.44
2018-03-07T21:31:10.374Z,69.85
2018-03-07T21:33:38.858Z,69.64
2018-03-07T21:36:07.367Z,69.31
2018-03-07T21:38:35.849Z,69.64
2018-03-07T21:41:04.314Z,69.39
2018-03-07T21:43:32.830Z,70.93
2018-03-07T21:46:01.298Z,70.36
2018-03-07T21:48:29.757Z,70.95
2018-03-07T21:50:58.257Z,70.43
2018-03-07T21:53:26.728Z,69.97
2018-03-07T21:55:55.194Z,69.83
2018-03-07T21:58:23.698Z,71.27
2018-03-07T22:00:52.202Z,72.03
2018-03-07T22:03:20.719Z,75.92
2018-03-07T22:05:49.213Z,73.70
2018-03-07T22:08:17.724Z,74.96
2018-03-07T22:10:46.208Z,74.35
2018-03-07T22:13:14.734Z,74.13
2018-03-07T22:15:43.244Z,73.06
2018-03-07T22:18:11.710Z,72.09
2018-03-07T22:20:41.100Z,72.02
2018-03-07T22:23:09.607Z,70.83
2018-03-07T22:25:38.066Z,70.82
2018-03-07T22:28:06.581Z,70.29
2018-03-07T22:30:35.062Z,70.00
2018-03-07T22:33:03.558Z,70.22
2018-03-07T22:35:32.026Z,69.81
2018-03-07T22:38:00.532Z,69.78
2018-03-07T22:40:28.990Z,69.95
2018-03-07T22:42:57.454Z,69.73
2018-03-07T22:45:25.931Z,70.24
2018-03-07T22:47:54.389Z,69.85
2018-03-07T22:50:22.888Z,69.78
2018-03-07T22:52:51.341Z,69.38
2018-03-07T22:55:19.815Z,69.39
2018-03-07T22:57:48.272Z,70.13
2018-03-07T23:00:25.093Z,70.27
2018-03-07T23:02:53.589Z,70.10
2018-03-07T23:05:22.058Z,70.27
2018-03-07T23:07:50.560Z,71.17
2018-03-07T23:10:19.024Z,70.73
2018-03-07T23:12:47.522Z,70.18
2018-03-07T23:15:15.986Z,69.89
2018-03-07T23:17:44.514Z,69.76
2018-03-07T23:20:12.974Z,69.67
2018-03-07T23:22:41.457Z,69.29
2018-03-07T23:25:09.966Z,69.11
2018-03-07T23:27:38.440Z,69.48
2018-03-07T23:30:06.937Z,70.25
2018-03-07T23:32:35.424Z,69.80
2018-03-07T23:35:03.950Z,69.33
2018-03-07T23:37:32.448Z,69.03
2018-03-07T23:40:00.942Z,69.05
2018-03-07T23:42:29.452Z,69.08
2018-03-07T23:44:57.934Z,68.94
2018-03-07T23:47:26.415Z,70.21
2018-03-07T23:49:54.925Z,70.33
2018-03-07T23:52:23.380Z,69.83
2018-03-07T23:54:51.923Z,69.55
2018-03-07T23:57:20.414Z,69.29
2018-03-07T23:59:48.877Z,68.82
